createdAt,value
2022-08-12T00:02:04.338Z,12.75
2022-08-12T00:05:12.865Z,12.75
2022-08-12T00:08:35.724Z,12.75
2022-08-12T00:11:45.895Z,12.75
2022-08-12T00:14:52.351Z,12.69
2022-08-12T00:17:59.269Z,12.69
2022-08-12T00:21:06.350Z,12.69
2022-08-12T00:24:13.456Z,12.63
2022-08-12T00:27:20.527Z,12.56
2022-08-12T00:30:29.355Z,12.56
2022-08-12T00:33:52.534Z,12.56
2022-08-12T00:37:02.798Z,12.56
2022-08-12T00:40:21.163Z,12.56
2022-08-12T00:43:13.076Z,12.50
2022-08-12T00:46:19.201Z,12.44
2022-08-12T00:49:08.162Z,12.44
2022-08-12T00:52:10.141Z,12.44
2022-08-12T00:55:02.690Z,12.50
2022-08-12T00:57:52.214Z,12.50
2022-08-12T01:00:42.757Z,12.50
2022-08-12T01:03:59.725Z,12.50
2022-08-12T01:07:06.963Z,12.50
2022-08-12T01:10:13.972Z,12.50
2022-08-12T01:13:18.304Z,12.44
2022-08-12T01:16:09.809Z,12.50
2022-08-12T01:18:59.001Z,12.50
2022-08-12T01:22:12.146Z,12.50
2022-08-12T01:25:12.711Z,12.50
2022-08-12T01:28:02.568Z,12.44
2022-08-12T01:30:51.162Z,12.38
2022-08-12T01:34:35.585Z,12.38
2022-08-12T01:37:17.420Z,12.31
2022-08-12T01:40:36.731Z,12.38
2022-08-12T01:43:21.771Z,12.44
2022-08-12T01:46:22.788Z,12.38
2022-08-12T01:49:54.679Z,12.38
2022-08-12T01:52:55.487Z,12.38
2022-08-12T01:55:47.303Z,12.38
2022-08-12T01:59:01.422Z,12.31
2022-08-12T02:01:54.332Z,12.25
2022-08-12T02:05:13.629Z,12.25
2022-08-12T02:08:26.961Z,12.25
2022-08-12T02:11:30.622Z,12.25
2022-08-12T02:14:52.211Z,12.31
2022-08-12T02:17:55.351Z,12.38
2022-08-12T02:21:30.031Z,12.31
2022-08-12T02:24:22.222Z,12.31
2022-08-12T02:27:15.545Z,12.38
2022-08-12T02:30:09.950Z,12.31
2022-08-12T02:33:01.272Z,12.31
2022-08-12T02:35:51.657Z,12.31
2022-08-12T02:38:43.373Z,12.31
2022-08-12T02:41:34.818Z,12.38
2022-08-12T02:44:25.850Z,12.31
2022-08-12T02:47:59.735Z,12.38
2022-08-12T02:50:29.135Z,12.50
2022-08-12T02:53:18.477Z,12.50
2022-08-12T02:56:07.250Z,12.50
2022-08-12T02:58:58.214Z,12.56
2022-08-12T03:01:51.038Z,12.50
2022-08-12T03:04:56.638Z,12.50
2022-08-12T03:07:59.450Z,12.50
2022-08-12T03:10:51.101Z,12.50
2022-08-12T03:13:45.689Z,12.50
2022-08-12T03:16:33.696Z,12.56
2022-08-12T03:19:25.526Z,12.63
2022-08-12T03:22:14.806Z,12.69
2022-08-12T03:25:05.586Z,12.69
2022-08-12T03:27:57.535Z,12.81
2022-08-12T03:30:56.233Z,12.81
2022-08-12T03:34:00.831Z,12.81
2022-08-12T03:36:55.361Z,12.81
2022-08-12T03:39:45.727Z,12.81
2022-08-12T03:42:52.424Z,12.81
2022-08-12T03:45:59.043Z,12.88
2022-08-12T03:49:05.802Z,12.88
2022-08-12T03:52:13.281Z,12.94
2022-08-12T03:55:19.950Z,13.00
2022-08-12T03:58:30.113Z,13.06
2022-08-12T04:01:23.224Z,13.13
2022-08-12T04:04:11.459Z,13.19
2022-08-12T04:07:08.234Z,13.19
2022-08-12T04:09:58.077Z,13.25
2022-08-12T04:13:20.200Z,13.31
2022-08-12T04:16:10.556Z,13.44
2022-08-12T04:18:59.361Z,13.50
2022-08-12T04:22:01.875Z,13.50
2022-08-12T04:24:54.000Z,13.56
2022-08-12T04:27:46.292Z,13.69
2022-08-12T04:30:36.290Z,13.88
2022-08-12T04:33:25.531Z,13.94
2022-08-12T04:36:13.590Z,14.06
2022-08-12T04:39:04.514Z,14.13
2022-08-12T04:41:58.760Z,14.25
2022-08-12T04:44:47.369Z,14.50
2022-08-12T04:47:36.094Z,14.56
2022-08-12T04:50:35.170Z,14.69
2022-08-12T04:53:25.496Z,14.75
2022-08-12T04:56:14.809Z,14.88
2022-08-12T04:59:04.447Z,15.06
2022-08-12T05:01:53.816Z,15.19
2022-08-12T05:04:44.510Z,15.44
2022-08-12T05:07:33.784Z,15.75
2022-08-12T05:10:33.161Z,16.06
2022-08-12T05:13:28.188Z,16.31
2022-08-12T05:16:16.244Z,16.69
2022-08-12T05:19:18.712Z,17.06
2022-08-12T05:22:10.692Z,17.50
2022-08-12T05:24:59.505Z,18.25
2022-08-12T05:27:55.201Z,19.19
2022-08-12T05:30:48.240Z,20.06
2022-08-12T05:33:38.187Z,22.00
2022-08-12T05:36:26.105Z,24.38
2022-08-12T05:39:14.322Z,26.44
2022-08-12T05:42:02.307Z,27.81
2022-08-12T05:44:50.262Z,28.56
2022-08-12T05:47:48.534Z,28.75
2022-08-12T05:50:44.263Z,29.44
2022-08-12T05:53:32.171Z,29.81
2022-08-12T05:56:35.619Z,29.75
2022-08-12T05:59:24.455Z,30.31
2022-08-12T06:02:13.693Z,30.69
2022-08-12T06:05:02.760Z,31.75
2022-08-12T06:08:02.159Z,31.56
2022-08-12T06:10:51.057Z,31.63
2022-08-12T06:13:53.770Z,31.38
2022-08-12T06:16:44.266Z,30.94
2022-08-12T06:20:26.770Z,31.31
2022-08-12T06:22:45.207Z,31.88
2022-08-12T06:25:34.716Z,32.38
2022-08-12T06:28:22.890Z,32.94
2022-08-12T06:31:27.194Z,33.63
2022-08-12T06:35:27.205Z,34.56
2022-08-12T06:37:25.680Z,35.38
2022-08-12T06:40:14.649Z,35.19
2022-08-12T06:43:02.530Z,36.00
2022-08-12T06:45:50.882Z,36.25
2022-08-12T06:48:39.050Z,37.06
2022-08-12T06:51:31.058Z,37.13
2022-08-12T06:54:30.642Z,37.75
2022-08-12T06:57:57.881Z,37.81
2022-08-12T07:00:30.676Z,38.06
2022-08-12T07:03:27.963Z,38.81
2022-08-12T07:06:16.156Z,39.63
2022-08-12T07:09:05.266Z,40.38
2022-08-12T07:11:53.469Z,41.00
2022-08-12T07:14:42.882Z,41.94
2022-08-12T07:17:38.166Z,41.38
2022-08-12T07:20:51.849Z,42.38
2022-08-12T07:23:41.864Z,42.75
2022-08-12T07:26:29.560Z,43.44
2022-08-12T07:29:17.709Z,43.31
2022-08-12T07:32:05.854Z,42.69
2022-08-12T07:34:55.436Z,43.44
2022-08-12T07:37:44.393Z,45.94
2022-08-12T07:40:36.349Z,46.38
2022-08-12T07:43:27.619Z,45.94
2022-08-12T07:46:23.196Z,49.06
2022-08-12T07:49:15.412Z,51.13
2022-08-12T07:52:05.845Z,51.63
2022-08-12T07:54:54.793Z,50.63
2022-08-12T07:57:59.563Z,52.81
2022-08-12T08:00:50.305Z,53.00
2022-08-12T08:03:59.508Z,54.69
2022-08-12T08:06:50.875Z,56.56
2022-08-12T08:09:39.450Z,56.63
2022-08-12T08:12:47.724Z,55.13
2022-08-12T08:16:01.857Z,55.06
2022-08-12T08:18:44.325Z,53.13
2022-08-12T08:21:35.534Z,53.94
2022-08-12T08:24:27.224Z,54.94
2022-08-12T08:27:15.415Z,55.94
2022-08-12T08:30:03.927Z,57.25
2022-08-12T08:32:52.000Z,53.06
2022-08-12T08:35:47.834Z,53.56
2022-08-12T08:38:36.358Z,55.63
2022-08-12T08:42:14.033Z,57.69
2022-08-12T08:44:58.062Z,55.50
2022-08-12T08:47:48.864Z,57.69
2022-08-12T08:50:36.775Z,59.69
2022-08-12T08:53:24.679Z,59.13
2022-08-12T08:56:13.120Z,60.50
2022-08-12T08:59:01.674Z,60.94
2022-08-12T09:01:54.283Z,60.94
2022-08-12T09:05:12.476Z,61.13
2022-08-12T09:08:09.165Z,60.44
2022-08-12T09:12:06.732Z,61.50
2022-08-12T09:14:29.690Z,60.38
2022-08-12T09:17:20.993Z,61.38
2022-08-12T09:20:15.859Z,61.56
2022-08-12T09:23:07.914Z,62.00
2022-08-12T09:26:16.441Z,63.44
2022-08-12T09:29:12.014Z,63.75
2022-08-12T09:32:06.138Z,61.44
2022-08-12T09:34:56.746Z,61.25
2022-08-12T09:37:57.606Z,61.56
2022-08-12T09:42:08.716Z,62.63
2022-08-12T09:44:38.332Z,62.63
2022-08-12T09:47:29.799Z,64.00
2022-08-12T09:50:25.216Z,60.00
2022-08-12T09:53:36.430Z,60.88
2022-08-12T09:57:02.238Z,59.69
2022-08-12T10:00:15.277Z,58.94
2022-08-12T10:03:32.250Z,57.25
2022-08-12T10:06:31.668Z,57.88
2022-08-12T10:09:57.417Z,57.56
2022-08-12T10:13:11.861Z,58.63
2022-08-12T10:16:07.804Z,57.13
2022-08-12T10:19:17.536Z,58.56
2022-08-12T10:22:17.220Z,59.50
2022-08-12T10:26:18.334Z,61.81
2022-08-12T10:30:02.010Z,59.94
2022-08-12T10:32:45.437Z,61.81
2022-08-12T10:35:38.026Z,59.19
2022-08-12T10:38:41.497Z,61.88
2022-08-12T10:41:58.522Z,63.06
2022-08-12T10:44:51.797Z,62.56
2022-08-12T10:48:07.641Z,61.69
2022-08-12T10:51:02.220Z,62.00
2022-08-12T10:54:00.416Z,61.25
2022-08-12T10:56:51.417Z,61.38
2022-08-12T11:00:03.463Z,58.81
2022-08-12T11:04:25.741Z,57.38
2022-08-12T11:07:08.562Z,58.56
2022-08-12T11:09:55.628Z,58.69
2022-08-12T11:12:58.713Z,59.00
2022-08-12T11:16:04.095Z,58.56
2022-08-12T11:18:58.285Z,58.06
2022-08-12T11:21:57.538Z,58.31
2022-08-12T11:24:51.370Z,55.81
2022-08-12T11:27:45.239Z,53.88
2022-08-12T11:30:48.471Z,52.88
2022-08-12T11:34:06.623Z,54.06
2022-08-12T11:37:05.348Z,55.00
2022-08-12T11:43:18.753Z,52.13
2022-08-12T11:46:07.227Z,49.81
2022-08-12T11:49:04.473Z,49.94
2022-08-12T11:51:57.588Z,45.81
2022-08-12T11:54:51.039Z,40.38
2022-08-12T11:58:40.481Z,37.44
2022-08-12T12:02:01.207Z,34.75
2022-08-12T12:04:22.619Z,33.13
2022-08-12T12:07:18.705Z,32.38
2022-08-12T12:10:08.283Z,31.81
2022-08-12T12:12:58.867Z,31.56
2022-08-12T12:15:48.118Z,31.25
2022-08-12T12:18:36.891Z,30.88
2022-08-12T12:21:47.009Z,30.69
2022-08-12T12:24:33.045Z,30.75
2022-08-12T12:27:42.252Z,30.63
2022-08-12T12:30:31.106Z,30.56
2022-08-12T12:33:21.060Z,30.06
2022-08-12T12:36:20.697Z,30.06
2022-08-12T12:39:11.230Z,29.94
2022-08-12T12:42:42.744Z,29.81
2022-08-12T12:45:19.676Z,29.38
2022-08-12T12:48:10.941Z,29.50
2022-08-12T12:51:22.285Z,29.56
2022-08-12T12:54:29.101Z,29.56
2022-08-12T12:57:17.115Z,29.38
2022-08-12T13:00:17.928Z,29.38
2022-08-12T13:03:06.231Z,29.38
2022-08-12T13:06:11.962Z,29.13
2022-08-12T13:09:03.993Z,29.13
2022-08-12T13:11:53.469Z,29.13
2022-08-12T13:14:43.361Z,29.13
2022-08-12T13:18:02.009Z,29.00
2022-08-12T13:20:49.951Z,28.56
2022-08-12T13:23:51.611Z,28.50
2022-08-12T13:26:40.656Z,28.31
2022-08-12T13:29:34.177Z,28.19
2022-08-12T13:32:31.316Z,28.25
2022-08-12T13:36:03.378Z,28.06
2022-08-12T13:38:41.099Z,28.13
2022-08-12T13:41:39.007Z,28.13
2022-08-12T13:44:30.545Z,28.13
2022-08-12T13:47:25.077Z,28.06
2022-08-12T13:50:16.933Z,28.00
2022-08-12T13:53:24.204Z,27.88
2022-08-12T13:56:17.766Z,27.94
2022-08-12T13:59:09.803Z,28.00
2022-08-12T14:02:00.033Z,27.94
2022-08-12T14:04:56.293Z,27.81
2022-08-12T14:07:58.845Z,27.75
2022-08-12T14:10:53.637Z,27.81
2022-08-12T14:14:06.146Z,27.81
2022-08-12T14:16:58.556Z,27.69
2022-08-12T14:20:06.214Z,27.56
2022-08-12T14:23:00.143Z,27.56
2022-08-12T14:26:21.600Z,27.63
2022-08-12T14:29:09.724Z,27.63
2022-08-12T14:32:18.418Z,27.56
2022-08-12T14:35:09.167Z,27.44
2022-08-12T14:37:59.239Z,27.38
2022-08-12T14:40:59.970Z,27.56
2022-08-12T14:44:04.599Z,27.38
2022-08-12T14:46:59.638Z,27.31
2022-08-12T14:50:41.494Z,27.44
2022-08-12T14:59:57.851Z,27.31
2022-08-12T15:02:41.383Z,27.25
2022-08-12T15:06:05.109Z,27.13
2022-08-12T15:08:45.595Z,27.06
2022-08-12T15:11:54.824Z,26.75
2022-08-12T15:14:45.626Z,26.75
2022-08-12T15:17:38.443Z,26.94
2022-08-12T15:20:37.953Z,27.06
2022-08-12T15:23:32.881Z,27.06
2022-08-12T15:26:28.349Z,27.13
2022-08-12T15:29:16.943Z,27.19
2022-08-12T15:32:10.689Z,27.19
2022-08-12T15:35:04.346Z,27.19
2022-08-12T15:38:13.740Z,27.19
2022-08-12T15:41:07.580Z,26.88
2022-08-12T15:44:36.672Z,26.94
2022-08-12T15:47:05.032Z,26.88
2022-08-12T15:50:00.483Z,26.69
2022-08-12T15:52:49.516Z,26.50
2022-08-12T15:55:46.084Z,26.50
2022-08-12T15:58:41.459Z,26.44
2022-08-12T16:01:35.104Z,26.50
2022-08-12T16:04:23.473Z,26.38
2022-08-12T16:07:11.680Z,26.19
2022-08-12T16:10:05.426Z,26.25
2022-08-12T16:12:58.811Z,26.13
2022-08-12T16:15:50.954Z,26.06
2022-08-12T16:18:50.121Z,25.81
2022-08-12T16:21:52.620Z,25.69
2022-08-12T16:24:51.974Z,25.50
2022-08-12T16:27:42.000Z,25.38
2022-08-12T16:30:34.483Z,25.19
2022-08-12T16:33:56.433Z,25.19
2022-08-12T16:36:52.940Z,24.81
2022-08-12T16:40:01.067Z,24.69
2022-08-12T16:43:01.732Z,24.63
2022-08-12T16:46:05.032Z,24.56
2022-08-12T16:48:58.530Z,24.38
2022-08-12T16:51:47.630Z,24.31
2022-08-12T16:54:36.484Z,24.13
2022-08-12T16:57:35.148Z,24.06
2022-08-12T17:00:25.078Z,24.00
2022-08-12T17:03:13.790Z,23.81
2022-08-12T17:06:19.608Z,23.75
2022-08-12T17:09:16.943Z,23.56
2022-08-12T17:12:07.376Z,23.38
2022-08-12T17:14:55.582Z,23.25
2022-08-12T17:17:46.618Z,23.06
2022-08-12T17:20:41.593Z,23.00
2022-08-12T17:23:48.401Z,22.88
2022-08-12T17:26:45.097Z,22.69
2022-08-12T17:30:01.524Z,22.56
2022-08-12T17:32:53.314Z,22.44
2022-08-12T17:35:50.202Z,22.31
2022-08-12T17:38:38.409Z,22.19
2022-08-12T17:41:56.659Z,22.06
2022-08-12T17:44:46.041Z,21.94
2022-08-12T17:47:36.423Z,21.88
2022-08-12T17:50:28.658Z,21.75
2022-08-12T17:53:20.898Z,21.63
2022-08-12T17:56:09.336Z,21.50
2022-08-12T17:58:59.285Z,21.44
2022-08-12T18:01:48.690Z,21.31
2022-08-12T18:04:37.892Z,21.19
2022-08-12T18:07:47.301Z,21.13
2022-08-12T18:10:55.040Z,21.00
2022-08-12T18:13:44.098Z,20.94
2022-08-12T18:16:32.276Z,20.81
2022-08-12T18:19:21.134Z,20.75
2022-08-12T18:22:09.195Z,20.63
2022-08-12T18:25:02.442Z,20.56
2022-08-12T18:28:16.753Z,20.44
2022-08-12T18:31:03.846Z,20.31
2022-08-12T18:33:52.737Z,20.25
2022-08-12T18:36:47.146Z,20.19
2022-08-12T18:40:03.142Z,20.06
2022-08-12T18:42:54.150Z,20.00
2022-08-12T18:45:57.547Z,19.94
2022-08-12T18:48:47.317Z,19.94
2022-08-12T18:52:04.735Z,19.88
2022-08-12T18:54:59.349Z,19.81
2022-08-12T18:58:06.468Z,19.75
2022-08-12T19:00:56.299Z,19.63
2022-08-12T19:04:06.778Z,19.56
2022-08-12T19:07:00.413Z,19.56
2022-08-12T19:09:57.456Z,19.50
2022-08-12T19:13:09.196Z,19.50
2022-08-12T19:16:01.518Z,19.50
2022-08-12T19:18:50.710Z,19.44
2022-08-12T19:21:40.805Z,19.44
2022-08-12T19:25:03.753Z,19.44
2022-08-12T19:27:55.905Z,19.31
2022-08-12T19:31:04.326Z,19.25
2022-08-12T19:34:25.583Z,19.19
2022-08-12T19:37:07.229Z,19.19
2022-08-12T19:40:10.035Z,19.13
2022-08-12T19:43:21.935Z,19.13
2022-08-12T19:46:16.275Z,19.13
2022-08-12T19:49:22.396Z,19.06
2022-08-12T19:52:12.043Z,19.00
2022-08-12T19:55:19.370Z,19.00
2022-08-12T19:58:18.041Z,18.94
2022-08-12T20:01:12.838Z,18.88
2022-08-12T20:04:08.517Z,18.88
2022-08-12T20:07:00.396Z,18.88
2022-08-12T20:09:52.718Z,18.81
2022-08-12T20:13:10.111Z,18.75
2022-08-12T20:15:59.608Z,18.75
2022-08-12T20:18:57.126Z,18.69
2022-08-12T20:21:47.082Z,18.63
2022-08-12T20:24:39.100Z,18.56
2022-08-12T20:28:04.585Z,18.56
2022-08-12T20:30:53.610Z,18.50
2022-08-12T20:33:56.638Z,18.50
2022-08-12T20:36:45.333Z,18.44
2022-08-12T20:39:53.290Z,18.50
2022-08-12T20:42:50.541Z,18.50
2022-08-12T20:45:44.991Z,18.44
2022-08-12T20:48:44.413Z,18.44
2022-08-12T20:51:50.870Z,18.44
2022-08-12T20:54:50.218Z,18.38
2022-08-12T20:58:01.760Z,18.38
2022-08-12T21:00:46.646Z,18.31
2022-08-12T21:03:58.406Z,18.31
2022-08-12T21:07:08.573Z,18.25
2022-08-12T21:09:57.862Z,18.25
2022-08-12T21:12:46.573Z,18.19
2022-08-12T21:15:54.928Z,18.13
2022-08-12T21:18:42.768Z,18.13
2022-08-12T21:21:50.596Z,18.13
2022-08-12T21:24:46.741Z,18.13
2022-08-12T21:27:58.675Z,18.06
2022-08-12T21:31:10.411Z,18.06
2022-08-12T21:34:06.972Z,18.00
2022-08-12T21:37:26.851Z,18.00
2022-08-12T21:40:14.904Z,17.94
2022-08-12T21:43:04.969Z,17.94
2022-08-12T21:46:00.942Z,17.88
2022-08-12T21:48:57.528Z,17.88
2022-08-12T21:51:50.691Z,17.81
2022-08-12T21:54:42.788Z,17.81
2022-08-12T21:57:36.217Z,17.81
2022-08-12T22:00:37.561Z,17.75
2022-08-12T22:04:10.809Z,17.69
2022-08-12T22:06:55.406Z,17.69
2022-08-12T22:09:47.448Z,17.69
2022-08-12T22:12:46.992Z,17.69
2022-08-12T22:15:35.298Z,17.63
2022-08-12T22:18:26.861Z,17.63
2022-08-12T22:21:17.934Z,17.56
2022-08-12T22:24:09.807Z,17.56
2022-08-12T22:27:28.589Z,17.50
2022-08-12T22:30:40.228Z,17.44
2022-08-12T22:33:28.705Z,17.50
2022-08-12T22:36:21.890Z,17.50
2022-08-12T22:39:15.750Z,17.44
2022-08-12T22:42:23.311Z,17.38
2022-08-12T22:45:30.806Z,17.31
2022-08-12T22:48:26.564Z,17.31
2022-08-12T22:51:24.035Z,17.25
2022-08-12T22:54:35.945Z,17.25
2022-08-12T22:57:20.754Z,17.25
2022-08-12T23:00:24.524Z,17.25
2022-08-12T23:03:48.707Z,17.25
2022-08-12T23:06:26.917Z,17.19
2022-08-12T23:09:34.597Z,17.13
2022-08-12T23:12:54.975Z,17.13
2022-08-12T23:15:47.463Z,17.13
2022-08-12T23:18:38.223Z,17.06
2022-08-12T23:21:40.506Z,17.06
2022-08-12T23:24:36.666Z,17.00
2022-08-12T23:27:50.909Z,16.94
2022-08-12T23:30:40.263Z,16.94
2022-08-12T23:34:00.665Z,17.00
2022-08-12T23:36:44.190Z,16.94
2022-08-12T23:40:15.027Z,16.88
2022-08-12T23:42:44.321Z,16.88
2022-08-12T23:45:34.045Z,16.81
2022-08-12T23:48:31.379Z,16.81
2022-08-12T23:51:25.463Z,16.75
2022-08-12T23:54:17.889Z,16.75
2022-08-12T23:57:21.801Z,16.69
